createdAt,value
2019-03-23T01:29:11.240Z,11.93
2019-03-23T01:33:20.574Z,11.17
2019-03-23T01:37:29.890Z,11.33
2019-03-23T05:16:49.226Z,17.07
2019-03-23T05:20:58.555Z,16.10
2019-03-23T05:25:10.963Z,17.13
2019-03-23T05:29:20.274Z,17.80
2019-03-23T05:33:29.606Z,18.60
2019-03-23T05:37:38.909Z,15.80
2019-03-23T05:41:48.547Z,15.10
2019-03-23T05:45:57.859Z,17.50
2019-03-23T05:50:07.422Z,15.83
2019-03-23T05:54:16.809Z,16.77
2019-03-23T05:58:26.429Z,16.30
2019-03-23T06:02:35.756Z,15.97
2019-03-23T06:06:45.066Z,15.53
2019-03-23T06:10:54.686Z,16.30
2019-03-23T06:15:04.245Z,15.43
2019-03-23T06:19:13.930Z,16.33
2019-03-23T06:23:23.527Z,16.40
2019-03-23T06:27:33.612Z,18.17
2019-03-23T06:31:43.822Z,18.10
2019-03-23T06:35:53.513Z,20.20
2019-03-23T06:40:02.907Z,19.40
2019-03-23T06:44:12.495Z,20.50
2019-03-23T06:48:21.891Z,18.47
2019-03-23T06:52:31.507Z,21.40
2019-03-23T06:56:40.819Z,20.90
2019-03-23T07:00:50.286Z,21.90
2019-03-23T07:04:59.614Z,24.60
2019-03-23T07:09:16.038Z,23.30
2019-03-23T07:13:20.367Z,28.23
2019-03-23T07:17:30.016Z,29.73
2019-03-23T07:21:39.870Z,29.40
2019-03-23T07:25:49.551Z,29.60
2019-03-23T07:29:59.165Z,30.10
2019-03-23T07:34:08.506Z,31.73
2019-03-23T07:38:18.066Z,31.70
2019-03-23T07:42:27.385Z,32.53
2019-03-23T07:46:36.703Z,33.33
2019-03-23T07:50:46.303Z,31.47
2019-03-23T07:54:55.618Z,32.50
2019-03-23T07:59:05.025Z,33.60
2019-03-23T08:03:14.366Z,30.37
2019-03-23T08:07:24.002Z,29.37
2019-03-23T08:11:33.298Z,32.67
2019-03-23T08:15:43.030Z,34.50
2019-03-23T08:19:52.763Z,36.30
2019-03-23T08:24:02.694Z,33.47
2019-03-23T08:28:12.383Z,33.20
2019-03-23T08:32:21.711Z,34.27
2019-03-23T08:36:31.026Z,30.97
2019-03-23T08:40:41.215Z,33.90
2019-03-23T08:44:50.521Z,38.73
2019-03-23T08:49:00.203Z,32.97
2019-03-23T08:53:13.602Z,38.50
2019-03-23T08:57:23.247Z,33.60
2019-03-23T09:01:32.558Z,30.43
2019-03-23T09:05:42.250Z,30.07
2019-03-23T09:09:59.030Z,24.33
2019-03-23T09:14:02.771Z,44.90
2019-03-23T09:18:12.382Z,29.30
2019-03-23T09:22:22.018Z,20.10
2019-03-23T09:26:31.974Z,21.30
2019-03-23T09:30:41.302Z,21.03
2019-03-23T09:34:50.626Z,61.13
2019-03-23T09:38:59.945Z,23.33
2019-03-23T09:43:09.254Z,20.80
2019-03-23T09:47:18.578Z,19.43
2019-03-23T09:51:29.343Z,20.50
2019-03-23T09:55:38.737Z,20.07
2019-03-23T09:59:48.065Z,23.57
2019-03-23T10:03:57.815Z,78.23
2019-03-23T10:08:07.135Z,34.80
2019-03-23T10:12:16.554Z,46.43
2019-03-23T10:16:25.869Z,22.80
2019-03-23T10:20:35.194Z,49.80
2019-03-23T10:24:44.500Z,24.50
2019-03-23T10:28:54.090Z,22.60
2019-03-23T10:33:03.807Z,23.33
2019-03-23T10:37:13.293Z,24.03
2019-03-23T10:41:22.614Z,34.83
2019-03-23T10:45:31.938Z,26.10
2019-03-23T10:49:41.247Z,24.63
2019-03-23T10:53:50.569Z,26.00
2019-03-23T10:57:59.889Z,24.30
2019-03-23T11:02:09.363Z,24.37
2019-03-23T11:06:19.352Z,26.00
2019-03-23T11:10:28.641Z,26.30
2019-03-23T11:14:37.958Z,28.13
2019-03-23T11:18:47.288Z,29.73
2019-03-23T11:22:56.613Z,29.43
2019-03-23T11:27:06.270Z,32.43
2019-03-23T11:31:15.593Z,35.20
2019-03-23T11:35:24.914Z,33.70
2019-03-23T11:39:34.505Z,34.73
2019-03-23T11:43:43.835Z,31.97
2019-03-23T11:47:53.159Z,36.70
2019-03-23T11:52:02.622Z,37.93
2019-03-23T11:56:12.210Z,40.07
2019-03-23T12:00:21.634Z,43.23
2019-03-23T12:04:30.950Z,36.03
2019-03-23T12:08:40.275Z,37.37
2019-03-23T12:12:49.666Z,39.07
2019-03-23T12:16:59.302Z,38.03
2019-03-23T12:21:09.081Z,38.57
2019-03-23T12:25:18.478Z,43.53
2019-03-23T12:29:27.950Z,39.30
2019-03-23T12:33:37.286Z,40.00
2019-03-23T12:37:46.686Z,36.60
2019-03-23T12:41:56.002Z,40.63
2019-03-23T12:46:05.394Z,40.40
2019-03-23T12:50:14.965Z,38.90
2019-03-23T12:54:24.366Z,38.10
2019-03-23T12:58:34.282Z,36.53
2019-03-23T13:02:44.026Z,38.67
2019-03-23T13:06:53.604Z,38.63
2019-03-23T13:11:03.050Z,39.80
2019-03-23T13:15:14.426Z,37.57
2019-03-23T13:19:23.750Z,36.77
2019-03-23T13:23:33.070Z,36.17
2019-03-23T13:27:42.417Z,36.97
2019-03-23T13:31:51.714Z,36.60
2019-03-23T13:36:01.052Z,33.10
2019-03-23T13:40:10.637Z,33.07
2019-03-23T13:44:20.071Z,32.43
2019-03-23T13:48:29.702Z,31.37
2019-03-23T13:52:39.565Z,34.87
2019-03-23T13:56:48.883Z,32.50
2019-03-23T14:00:58.565Z,34.43
2019-03-23T14:05:15.673Z,35.23
2019-03-23T14:09:19.066Z,33.47
2019-03-23T14:13:28.405Z,30.50
2019-03-23T14:17:37.726Z,31.53
2019-03-23T14:21:47.045Z,31.20
2019-03-23T14:25:56.378Z,30.97
2019-03-23T14:30:06.693Z,27.77
2019-03-23T14:34:16.017Z,30.60
2019-03-23T14:38:26.014Z,27.33
2019-03-23T14:42:35.814Z,28.97
2019-03-23T14:46:45.138Z,30.07
2019-03-23T14:50:54.474Z,30.87
2019-03-23T14:55:04.534Z,31.07
2019-03-23T14:59:14.285Z,29.10
2019-03-23T15:03:23.935Z,29.07
2019-03-23T15:07:33.269Z,30.10
2019-03-23T15:11:42.647Z,31.30
2019-03-23T15:15:52.275Z,28.93
2019-03-23T15:20:01.929Z,29.13
2019-03-23T15:24:11.786Z,29.07
2019-03-23T15:28:21.116Z,30.13
2019-03-23T15:32:30.518Z,30.07
2019-03-23T15:36:40.116Z,29.40
2019-03-23T15:40:49.775Z,28.10
2019-03-23T15:44:59.099Z,29.80
2019-03-23T15:49:08.838Z,29.63
2019-03-23T15:53:18.482Z,26.93
2019-03-23T15:57:27.802Z,30.90
2019-03-23T16:01:37.473Z,30.07
2019-03-23T16:05:46.801Z,27.70
2019-03-23T16:09:56.133Z,26.50
2019-03-23T16:14:05.781Z,28.73
2019-03-23T16:18:15.102Z,28.40
2019-03-23T16:22:24.797Z,27.47
2019-03-23T16:26:34.153Z,26.13
2019-03-23T16:30:43.471Z,26.80
2019-03-23T16:34:52.835Z,28.80
2019-03-23T16:39:02.438Z,26.43
2019-03-23T16:43:12.246Z,26.00
2019-03-23T16:47:21.562Z,28.30
2019-03-23T16:51:30.882Z,27.43
2019-03-23T16:55:40.209Z,28.93
2019-03-23T16:59:49.532Z,30.13
2019-03-23T17:03:58.853Z,29.50
2019-03-23T17:08:08.310Z,28.73
2019-03-23T17:12:17.994Z,30.47
2019-03-23T17:16:27.558Z,30.70
2019-03-23T17:20:37.026Z,31.50
2019-03-23T17:24:46.678Z,31.30
2019-03-23T17:28:56.870Z,30.27
2019-03-23T17:33:08.807Z,33.10
2019-03-23T17:37:17.631Z,37.50
2019-03-23T17:41:27.827Z,33.53
2019-03-23T17:45:37.298Z,34.50
2019-03-23T17:49:46.628Z,31.93
2019-03-23T17:53:58.843Z,37.70
2019-03-23T17:58:07.692Z,34.30
2019-03-23T18:02:17.010Z,35.77
2019-03-23T18:06:26.664Z,38.37
2019-03-23T18:10:36.809Z,35.87
2019-03-23T18:14:46.123Z,37.40
2019-03-23T18:18:55.437Z,39.40
2019-03-23T18:23:04.902Z,37.37
2019-03-23T18:27:14.724Z,36.30
2019-03-23T18:31:24.142Z,37.10
2019-03-23T18:35:33.601Z,34.37
2019-03-23T18:39:43.254Z,36.70
2019-03-23T18:43:52.566Z,37.97
2019-03-23T18:48:02.315Z,36.37
2019-03-23T18:52:11.915Z,36.40
2019-03-23T18:56:21.571Z,38.13
2019-03-23T19:00:35.558Z,37.33
2019-03-23T19:04:44.866Z,37.50
2019-03-23T19:08:55.174Z,35.60
2019-03-23T19:13:05.068Z,37.50
2019-03-23T19:17:14.838Z,36.00
2019-03-23T19:21:24.154Z,36.43
2019-03-23T19:25:33.930Z,38.87
2019-03-23T19:29:43.245Z,37.07
2019-03-23T19:33:53.264Z,39.57
2019-03-23T19:38:03.146Z,38.30
2019-03-23T19:42:13.150Z,41.80
2019-03-23T19:46:23.102Z,40.47
2019-03-23T19:50:32.413Z,39.10
2019-03-23T19:54:41.743Z,38.80
2019-03-23T19:58:52.063Z,41.00
2019-03-23T20:03:01.823Z,40.27
2019-03-23T20:07:11.132Z,38.27
2019-03-23T20:11:21.126Z,40.80
2019-03-23T20:15:30.997Z,41.77
2019-03-23T20:19:40.625Z,40.80
2019-03-23T20:23:51.277Z,40.27
2019-03-23T20:28:00.801Z,38.90
2019-03-23T20:32:10.203Z,37.57
2019-03-23T20:36:19.567Z,37.93
2019-03-23T20:40:28.922Z,41.50
2019-03-23T20:44:38.317Z,41.23
2019-03-23T20:48:47.737Z,39.97
2019-03-23T20:52:57.128Z,41.90
2019-03-23T20:57:06.452Z,40.43
2019-03-23T21:01:16.124Z,40.60
2019-03-23T21:05:33.765Z,42.80
2019-03-23T21:09:36.946Z,42.10
2019-03-23T21:13:46.919Z,42.90
2019-03-23T21:17:56.672Z,43.27
2019-03-23T21:22:06.068Z,40.67
2019-03-23T21:26:15.398Z,44.30
2019-03-23T21:30:24.801Z,44.70
2019-03-23T21:34:34.446Z,41.00
2019-03-23T21:38:44.111Z,45.07
2019-03-23T21:42:53.795Z,47.70
2019-03-23T21:47:03.111Z,45.10
2019-03-23T21:51:12.715Z,47.10
2019-03-23T21:55:22.118Z,47.93
2019-03-23T21:59:31.753Z,46.30
2019-03-23T22:03:41.154Z,46.03
2019-03-23T22:07:50.481Z,46.30
2019-03-23T22:11:59.800Z,46.77
2019-03-23T22:16:09.118Z,44.83
2019-03-23T22:20:18.438Z,49.30
2019-03-23T22:24:28.024Z,49.70
2019-03-23T22:28:37.347Z,48.63
2019-03-23T22:32:46.923Z,48.20
2019-03-23T22:36:56.280Z,52.60
2019-03-23T22:41:05.725Z,49.90
2019-03-23T22:45:15.220Z,47.87
2019-03-23T22:49:24.810Z,50.20
2019-03-23T22:53:34.521Z,46.10
2019-03-23T22:57:43.841Z,47.83
2019-03-23T23:01:53.563Z,46.60
2019-03-23T23:06:03.216Z,49.30
2019-03-23T23:10:12.898Z,49.33
2019-03-23T23:14:22.571Z,46.60
2019-03-23T23:18:32.164Z,48.40
2019-03-23T23:22:41.817Z,49.20
2019-03-23T23:26:51.482Z,53.50
2019-03-23T23:31:01.093Z,50.57
2019-03-23T23:35:11.653Z,49.73
2019-03-23T23:39:20.974Z,48.97
2019-03-23T23:43:30.438Z,50.37
2019-03-23T23:47:39.814Z,52.37
2019-03-23T23:51:50.338Z,50.00
2019-03-23T23:55:59.856Z,54.80
